sensor_id;sensor_type;location;lat;lon;timestamp;P1;durP1;ratioP1;P2;durP2;ratioP2
54191;SDS011;40101;53.002;6.488;2024-02-21T00:02:26;11.40;;;2.85;;
54191;SDS011;40101;53.002;6.488;2024-02-21T00:05:03;12.70;;;4.35;;
54191;SDS011;40101;53.002;6.488;2024-02-21T00:07:46;15.77;;;3.45;;
54191;SDS011;40101;53.002;6.488;2024-02-21T00:10:12;14.50;;;3.15;;
54191;SDS011;40101;53.002;6.488;2024-02-21T00:12:44;22.02;;;3.55;;
54191;SDS011;40101;53.002;6.488;2024-02-21T00:15:12;10.52;;;3.33;;
54191;SDS011;40101;53.002;6.488;2024-02-21T00:17:43;14.95;;;2.97;;
54191;SDS011;40101;53.002;6.488;2024-02-21T00:20:20;10.02;;;3.45;;
54191;SDS011;40101;53.002;6.488;2024-02-21T00:22:51;18.48;;;4.20;;
54191;SDS011;40101;53.002;6.488;2024-02-21T00:25:17;19.63;;;5.07;;
54191;SDS011;40101;53.002;6.488;2024-02-21T00:27:45;18.02;;;3.17;;
54191;SDS011;40101;53.002;6.488;2024-02-21T00:30:11;9.20;;;3.72;;
54191;SDS011;40101;53.002;6.488;2024-02-21T00:32:37;14.75;;;2.85;;
54191;SDS011;40101;53.002;6.488;2024-02-21T00:35:03;17.52;;;3.50;;
54191;SDS011;40101;53.002;6.488;2024-02-21T00:37:29;17.15;;;3.17;;
54191;SDS011;40101;53.002;6.488;2024-02-21T00:39:56;15.93;;;3.42;;
54191;SDS011;40101;53.002;6.488;2024-02-21T00:42:21;14.73;;;4.13;;
54191;SDS011;40101;53.002;6.488;2024-02-21T00:44:47;14.15;;;3.60;;
54191;SDS011;40101;53.002;6.488;2024-02-21T00:47:13;11.93;;;3.83;;
54191;SDS011;40101;53.002;6.488;2024-02-21T00:49:40;23.17;;;5.40;;
54191;SDS011;40101;53.002;6.488;2024-02-21T00:52:05;22.15;;;3.72;;
54191;SDS011;40101;53.002;6.488;2024-02-21T00:54:31;22.95;;;3.58;;
54191;SDS011;40101;53.002;6.488;2024-02-21T00:56:57;14.85;;;3.65;;
54191;SDS011;40101;53.002;6.488;2024-02-21T00:59:23;21.60;;;3.85;;
54191;SDS011;40101;53.002;6.488;2024-02-21T01:01:48;14.07;;;4.18;;
54191;SDS011;40101;53.002;6.488;2024-02-21T01:04:14;23.75;;;3.80;;
54191;SDS011;40101;53.002;6.488;2024-02-21T01:06:40;13.18;;;3.55;;
54191;SDS011;40101;53.002;6.488;2024-02-21T01:09:09;20.88;;;4.03;;
54191;SDS011;40101;53.002;6.488;2024-02-21T01:11:35;14.98;;;3.08;;
54191;SDS011;40101;53.002;6.488;2024-02-21T01:14:01;11.90;;;3.40;;
54191;SDS011;40101;53.002;6.488;2024-02-21T01:16:26;17.27;;;4.97;;
54191;SDS011;40101;53.002;6.488;2024-02-21T01:18:52;15.73;;;3.45;;
54191;SDS011;40101;53.002;6.488;2024-02-21T01:21:18;15.23;;;3.55;;
54191;SDS011;40101;53.002;6.488;2024-02-21T01:23:43;21.95;;;5.60;;
54191;SDS011;40101;53.002;6.488;2024-02-21T01:26:09;17.67;;;4.68;;
54191;SDS011;40101;53.002;6.488;2024-02-21T01:28:38;15.63;;;3.55;;
54191;SDS011;40101;53.002;6.488;2024-02-21T01:31:03;17.58;;;3.65;;
54191;SDS011;40101;53.002;6.488;2024-02-21T01:33:29;16.55;;;4.03;;
54191;SDS011;40101;53.002;6.488;2024-02-21T01:36:00;14.52;;;3.97;;
54191;SDS011;40101;53.002;6.488;2024-02-21T01:38:27;23.20;;;4.15;;
54191;SDS011;40101;53.002;6.488;2024-02-21T01:40:53;16.27;;;3.30;;
54191;SDS011;40101;53.002;6.488;2024-02-21T01:43:20;20.08;;;4.88;;
54191;SDS011;40101;53.002;6.488;2024-02-21T01:45:46;19.05;;;5.05;;
54191;SDS011;40101;53.002;6.488;2024-02-21T01:48:15;18.63;;;3.72;;
54191;SDS011;40101;53.002;6.488;2024-02-21T01:50:43;14.88;;;5.28;;
54191;SDS011;40101;53.002;6.488;2024-02-21T01:53:30;18.17;;;4.70;;
54191;SDS011;40101;53.002;6.488;2024-02-21T01:56:00;19.30;;;5.45;;
54191;SDS011;40101;53.002;6.488;2024-02-21T01:58:26;20.85;;;4.88;;
54191;SDS011;40101;53.002;6.488;2024-02-21T02:00:54;21.70;;;4.80;;
54191;SDS011;40101;53.002;6.488;2024-02-21T02:03:21;21.80;;;5.00;;
54191;SDS011;40101;53.002;6.488;2024-02-21T02:05:48;16.85;;;3.88;;
54191;SDS011;40101;53.002;6.488;2024-02-21T02:08:15;35.72;;;5.13;;
54191;SDS011;40101;53.002;6.488;2024-02-21T02:10:42;18.40;;;5.32;;
54191;SDS011;40101;53.002;6.488;2024-02-21T02:13:08;16.67;;;4.68;;
54191;SDS011;40101;53.002;6.488;2024-02-21T02:15:37;17.70;;;5.53;;
54191;SDS011;40101;53.002;6.488;2024-02-21T02:18:04;18.27;;;4.57;;
54191;SDS011;40101;53.002;6.488;2024-02-21T02:20:31;20.17;;;5.47;;
54191;SDS011;40101;53.002;6.488;2024-02-21T02:22:58;23.60;;;4.32;;
54191;SDS011;40101;53.002;6.488;2024-02-21T02:25:28;17.55;;;4.90;;
54191;SDS011;40101;53.002;6.488;2024-02-21T02:27:54;20.42;;;4.78;;
54191;SDS011;40101;53.002;6.488;2024-02-21T02:30:19;21.55;;;4.97;;
54191;SDS011;40101;53.002;6.488;2024-02-21T02:32:45;15.88;;;4.63;;
54191;SDS011;40101;53.002;6.488;2024-02-21T02:35:11;14.50;;;4.75;;
54191;SDS011;40101;53.002;6.488;2024-02-21T02:37:37;18.17;;;4.55;;
54191;SDS011;40101;53.002;6.488;2024-02-21T02:40:06;26.00;;;7.35;;
54191;SDS011;40101;53.002;6.488;2024-02-21T02:42:32;19.42;;;6.53;;
54191;SDS011;40101;53.002;6.488;2024-02-21T02:44:58;19.42;;;5.03;;
54191;SDS011;40101;53.002;6.488;2024-02-21T02:47:23;21.63;;;5.40;;
54191;SDS011;40101;53.002;6.488;2024-02-21T02:49:49;19.48;;;5.45;;
54191;SDS011;40101;53.002;6.488;2024-02-21T02:52:16;21.10;;;4.60;;
54191;SDS011;40101;53.002;6.488;2024-02-21T02:54:43;20.45;;;6.65;;
54191;SDS011;40101;53.002;6.488;2024-02-21T02:57:09;16.75;;;4.85;;
54191;SDS011;40101;53.002;6.488;2024-02-21T02:59:34;23.15;;;7.28;;
54191;SDS011;40101;53.002;6.488;2024-02-21T03:02:00;13.00;;;5.05;;
54191;SDS011;40101;53.002;6.488;2024-02-21T03:04:26;17.20;;;4.30;;
54191;SDS011;40101;53.002;6.488;2024-02-21T03:06:52;13.63;;;4.78;;
54191;SDS011;40101;53.002;6.488;2024-02-21T03:09:18;22.55;;;6.05;;
54191;SDS011;40101;53.002;6.488;2024-02-21T03:11:44;18.08;;;5.75;;
54191;SDS011;40101;53.002;6.488;2024-02-21T03:14:10;28.25;;;5.78;;
54191;SDS011;40101;53.002;6.488;2024-02-21T03:16:35;23.42;;;6.00;;
54191;SDS011;40101;53.002;6.488;2024-02-21T03:19:01;27.00;;;7.50;;
54191;SDS011;40101;53.002;6.488;2024-02-21T03:21:27;24.45;;;6.68;;
54191;SDS011;40101;53.002;6.488;2024-02-21T03:23:52;25.92;;;6.10;;
54191;SDS011;40101;53.002;6.488;2024-02-21T03:26:18;17.52;;;5.13;;
54191;SDS011;40101;53.002;6.488;2024-02-21T03:28:44;26.33;;;7.35;;
54191;SDS011;40101;53.002;6.488;2024-02-21T03:31:13;23.75;;;7.15;;
54191;SDS011;40101;53.002;6.488;2024-02-21T03:33:42;15.73;;;6.00;;
54191;SDS011;40101;53.002;6.488;2024-02-21T03:36:14;26.83;;;7.07;;
54191;SDS011;40101;53.002;6.488;2024-02-21T03:38:40;25.35;;;6.30;;
54191;SDS011;40101;53.002;6.488;2024-02-21T03:41:06;23.35;;;6.95;;
54191;SDS011;40101;53.002;6.488;2024-02-21T03:43:32;26.92;;;6.70;;
54191;SDS011;40101;53.002;6.488;2024-02-21T03:45:57;23.55;;;6.22;;
54191;SDS011;40101;53.002;6.488;2024-02-21T03:48:23;18.70;;;6.30;;
54191;SDS011;40101;53.002;6.488;2024-02-21T03:50:49;21.27;;;6.03;;
54191;SDS011;40101;53.002;6.488;2024-02-21T03:53:15;30.83;;;6.80;;
54191;SDS011;40101;53.002;6.488;2024-02-21T03:55:40;17.38;;;6.72;;
54191;SDS011;40101;53.002;6.488;2024-02-21T03:58:06;23.95;;;7.00;;
54191;SDS011;40101;53.002;6.488;2024-02-21T04:00:32;20.27;;;6.53;;
54191;SDS011;40101;53.002;6.488;2024-02-21T04:02:57;25.90;;;6.57;;
54191;SDS011;40101;53.002;6.488;2024-02-21T04:05:24;24.52;;;7.03;;
54191;SDS011;40101;53.002;6.488;2024-02-21T04:07:49;24.20;;;7.40;;
54191;SDS011;40101;53.002;6.488;2024-02-21T04:10:16;15.70;;;6.82;;
54191;SDS011;40101;53.002;6.488;2024-02-21T04:12:42;21.73;;;6.78;;
54191;SDS011;40101;53.002;6.488;2024-02-21T04:15:08;25.13;;;7.13;;
54191;SDS011;40101;53.002;6.488;2024-02-21T04:17:34;25.83;;;8.48;;
54191;SDS011;40101;53.002;6.488;2024-02-21T04:20:04;19.77;;;6.80;;
54191;SDS011;40101;53.002;6.488;2024-02-21T04:22:34;30.02;;;7.15;;
54191;SDS011;40101;53.002;6.488;2024-02-21T04:25:00;24.58;;;6.47;;
54191;SDS011;40101;53.002;6.488;2024-02-21T04:27:26;31.88;;;7.22;;
54191;SDS011;40101;53.002;6.488;2024-02-21T04:29:52;33.97;;;8.38;;
54191;SDS011;40101;53.002;6.488;2024-02-21T04:32:18;20.85;;;7.50;;
54191;SDS011;40101;53.002;6.488;2024-02-21T04:34:44;26.02;;;6.05;;
54191;SDS011;40101;53.002;6.488;2024-02-21T04:37:09;24.45;;;6.68;;
54191;SDS011;40101;53.002;6.488;2024-02-21T04:39:35;18.42;;;6.43;;
54191;SDS011;40101;53.002;6.488;2024-02-21T04:42:01;22.73;;;7.13;;
54191;SDS011;40101;53.002;6.488;2024-02-21T04:44:26;29.88;;;7.25;;
54191;SDS011;40101;53.002;6.488;2024-02-21T04:46:52;26.25;;;6.75;;
54191;SDS011;40101;53.002;6.488;2024-02-21T04:49:17;22.88;;;6.47;;
54191;SDS011;40101;53.002;6.488;2024-02-21T04:51:44;26.13;;;7.20;;
54191;SDS011;40101;53.002;6.488;2024-02-21T04:54:10;28.63;;;8.40;;
54191;SDS011;40101;53.002;6.488;2024-02-21T04:56:36;22.70;;;6.03;;
54191;SDS011;40101;53.002;6.488;2024-02-21T04:59:02;32.97;;;6.40;;
54191;SDS011;40101;53.002;6.488;2024-02-21T05:01:30;28.65;;;7.90;;
54191;SDS011;40101;53.002;6.488;2024-02-21T05:03:56;22.70;;;6.85;;
54191;SDS011;40101;53.002;6.488;2024-02-21T05:06:21;30.00;;;7.55;;
54191;SDS011;40101;53.002;6.488;2024-02-21T05:08:47;20.85;;;6.85;;
54191;SDS011;40101;53.002;6.488;2024-02-21T05:11:13;24.75;;;6.72;;
54191;SDS011;40101;53.002;6.488;2024-02-21T05:13:38;32.55;;;8.18;;
54191;SDS011;40101;53.002;6.488;2024-02-21T05:16:04;31.30;;;8.45;;
54191;SDS011;40101;53.002;6.488;2024-02-21T05:18:31;29.90;;;7.97;;
54191;SDS011;40101;53.002;6.488;2024-02-21T05:20:58;37.58;;;7.90;;
54191;SDS011;40101;53.002;6.488;2024-02-21T05:23:24;21.38;;;7.55;;
54191;SDS011;40101;53.002;6.488;2024-02-21T05:25:50;24.95;;;8.13;;
54191;SDS011;40101;53.002;6.488;2024-02-21T05:28:16;22.88;;;8.65;;
54191;SDS011;40101;53.002;6.488;2024-02-21T05:30:42;26.13;;;7.40;;
54191;SDS011;40101;53.002;6.488;2024-02-21T05:33:08;31.70;;;9.00;;
54191;SDS011;40101;53.002;6.488;2024-02-21T05:35:34;30.75;;;8.88;;
54191;SDS011;40101;53.002;6.488;2024-02-21T05:38:00;24.33;;;9.35;;
54191;SDS011;40101;53.002;6.488;2024-02-21T05:40:29;46.13;;;10.15;;
54191;SDS011;40101;53.002;6.488;2024-02-21T05:42:54;28.50;;;9.38;;
54191;SDS011;40101;53.002;6.488;2024-02-21T05:45:20;24.67;;;8.32;;
54191;SDS011;40101;53.002;6.488;2024-02-21T05:47:46;23.10;;;8.65;;
54191;SDS011;40101;53.002;6.488;2024-02-21T05:50:12;24.50;;;7.53;;
54191;SDS011;40101;53.002;6.488;2024-02-21T05:52:37;23.63;;;7.72;;
54191;SDS011;40101;53.002;6.488;2024-02-21T05:55:03;26.08;;;9.52;;
54191;SDS011;40101;53.002;6.488;2024-02-21T05:57:31;22.67;;;8.95;;
54191;SDS011;40101;53.002;6.488;2024-02-21T05:59:57;34.45;;;9.88;;
54191;SDS011;40101;53.002;6.488;2024-02-21T06:02:23;24.35;;;9.05;;
54191;SDS011;40101;53.002;6.488;2024-02-21T06:04:48;32.58;;;11.48;;
54191;SDS011;40101;53.002;6.488;2024-02-21T06:07:14;36.67;;;10.25;;
54191;SDS011;40101;53.002;6.488;2024-02-21T06:09:40;35.70;;;9.77;;
54191;SDS011;40101;53.002;6.488;2024-02-21T06:12:06;43.92;;;11.98;;
54191;SDS011;40101;53.002;6.488;2024-02-21T06:14:32;38.45;;;11.10;;
54191;SDS011;40101;53.002;6.488;2024-02-21T06:16:57;44.45;;;12.50;;
54191;SDS011;40101;53.002;6.488;2024-02-21T06:19:23;35.97;;;11.65;;
54191;SDS011;40101;53.002;6.488;2024-02-21T06:21:49;33.08;;;11.23;;
54191;SDS011;40101;53.002;6.488;2024-02-21T06:24:14;38.92;;;11.82;;
54191;SDS011;40101;53.002;6.488;2024-02-21T06:26:40;34.90;;;11.18;;
54191;SDS011;40101;53.002;6.488;2024-02-21T06:29:06;35.38;;;11.90;;
54191;SDS011;40101;53.002;6.488;2024-02-21T06:31:31;46.20;;;11.43;;
54191;SDS011;40101;53.002;6.488;2024-02-21T06:33:57;56.13;;;11.20;;
54191;SDS011;40101;53.002;6.488;2024-02-21T06:36:23;31.75;;;9.55;;
54191;SDS011;40101;53.002;6.488;2024-02-21T06:38:49;34.17;;;8.20;;
54191;SDS011;40101;53.002;6.488;2024-02-21T06:41:15;45.88;;;10.07;;
54191;SDS011;40101;53.002;6.488;2024-02-21T06:43:41;38.33;;;7.72;;
54191;SDS011;40101;53.002;6.488;2024-02-21T06:46:07;42.58;;;7.80;;
54191;SDS011;40101;53.002;6.488;2024-02-21T06:48:33;36.42;;;8.00;;
54191;SDS011;40101;53.002;6.488;2024-02-21T06:50:58;38.20;;;8.02;;
54191;SDS011;40101;53.002;6.488;2024-02-21T06:53:24;34.72;;;8.27;;
54191;SDS011;40101;53.002;6.488;2024-02-21T06:55:50;27.33;;;6.45;;
54191;SDS011;40101;53.002;6.488;2024-02-21T06:58:15;41.40;;;7.38;;
54191;SDS011;40101;53.002;6.488;2024-02-21T07:00:42;24.52;;;8.57;;
54191;SDS011;40101;53.002;6.488;2024-02-21T07:03:08;24.65;;;7.45;;
54191;SDS011;40101;53.002;6.488;2024-02-21T07:05:34;34.63;;;8.25;;
54191;SDS011;40101;53.002;6.488;2024-02-21T07:08:00;27.52;;;6.57;;
54191;SDS011;40101;53.002;6.488;2024-02-21T07:10:25;23.98;;;9.20;;
54191;SDS011;40101;53.002;6.488;2024-02-21T07:12:53;29.13;;;7.53;;
54191;SDS011;40101;53.002;6.488;2024-02-21T07:15:18;37.10;;;8.18;;
54191;SDS011;40101;53.002;6.488;2024-02-21T07:17:44;20.27;;;6.80;;
54191;SDS011;40101;53.002;6.488;2024-02-21T07:20:10;22.00;;;6.57;;
54191;SDS011;40101;53.002;6.488;2024-02-21T07:22:35;36.28;;;8.68;;
54191;SDS011;40101;53.002;6.488;2024-02-21T07:25:01;23.25;;;6.65;;
54191;SDS011;40101;53.002;6.488;2024-02-21T07:27:27;39.03;;;6.72;;
54191;SDS011;40101;53.002;6.488;2024-02-21T07:29:56;21.42;;;8.13;;
54191;SDS011;40101;53.002;6.488;2024-02-21T07:32:22;13.95;;;6.00;;
54191;SDS011;40101;53.002;6.488;2024-02-21T07:34:47;30.27;;;7.40;;
54191;SDS011;40101;53.002;6.488;2024-02-21T07:37:13;25.13;;;7.43;;
54191;SDS011;40101;53.002;6.488;2024-02-21T07:39:39;19.08;;;6.75;;
54191;SDS011;40101;53.002;6.488;2024-02-21T07:42:06;18.30;;;6.13;;
54191;SDS011;40101;53.002;6.488;2024-02-21T07:44:31;22.95;;;6.88;;
54191;SDS011;40101;53.002;6.488;2024-02-21T07:46:57;25.33;;;6.35;;
54191;SDS011;40101;53.002;6.488;2024-02-21T07:49:23;26.45;;;7.43;;
54191;SDS011;40101;53.002;6.488;2024-02-21T07:51:49;25.27;;;6.25;;
54191;SDS011;40101;53.002;6.488;2024-02-21T07:54:15;21.73;;;7.45;;
54191;SDS011;40101;53.002;6.488;2024-02-21T07:56:41;16.38;;;6.00;;
54191;SDS011;40101;53.002;6.488;2024-02-21T07:59:07;20.60;;;6.35;;
54191;SDS011;40101;53.002;6.488;2024-02-21T08:01:33;27.48;;;8.43;;
54191;SDS011;40101;53.002;6.488;2024-02-21T08:03:58;19.88;;;7.72;;
54191;SDS011;40101;53.002;6.488;2024-02-21T08:06:24;21.40;;;8.75;;
54191;SDS011;40101;53.002;6.488;2024-02-21T08:08:50;29.17;;;7.78;;
54191;SDS011;40101;53.002;6.488;2024-02-21T08:11:16;23.80;;;8.95;;
54191;SDS011;40101;53.002;6.488;2024-02-21T08:13:41;18.13;;;10.00;;
54191;SDS011;40101;53.002;6.488;2024-02-21T08:16:07;26.92;;;12.15;;
54191;SDS011;40101;53.002;6.488;2024-02-21T08:18:33;28.92;;;12.93;;
54191;SDS011;40101;53.002;6.488;2024-02-21T08:21:03;27.40;;;12.35;;
54191;SDS011;40101;53.002;6.488;2024-02-21T08:23:29;30.55;;;13.07;;
54191;SDS011;40101;53.002;6.488;2024-02-21T08:25:55;24.88;;;13.25;;
54191;SDS011;40101;53.002;6.488;2024-02-21T08:28:21;32.20;;;13.63;;
54191;SDS011;40101;53.002;6.488;2024-02-21T08:30:46;23.88;;;13.30;;
54191;SDS011;40101;53.002;6.488;2024-02-21T08:33:14;34.28;;;13.35;;
54191;SDS011;40101;53.002;6.488;2024-02-21T08:35:41;25.33;;;14.13;;
54191;SDS011;40101;53.002;6.488;2024-02-21T08:38:07;23.90;;;14.48;;
54191;SDS011;40101;53.002;6.488;2024-02-21T08:40:33;32.22;;;13.00;;
54191;SDS011;40101;53.002;6.488;2024-02-21T08:43:00;22.70;;;12.73;;
54191;SDS011;40101;53.002;6.488;2024-02-21T08:45:26;24.38;;;13.38;;
54191;SDS011;40101;53.002;6.488;2024-02-21T08:47:52;32.25;;;13.93;;
54191;SDS011;40101;53.002;6.488;2024-02-21T08:50:18;26.10;;;13.30;;
54191;SDS011;40101;53.002;6.488;2024-02-21T08:52:43;23.05;;;13.02;;
54191;SDS011;40101;53.002;6.488;2024-02-21T08:55:09;30.40;;;12.63;;
54191;SDS011;40101;53.002;6.488;2024-02-21T08:57:35;30.23;;;14.50;;
54191;SDS011;40101;53.002;6.488;2024-02-21T09:00:04;30.20;;;14.10;;
54191;SDS011;40101;53.002;6.488;2024-02-21T09:02:43;26.42;;;13.13;;
54191;SDS011;40101;53.002;6.488;2024-02-21T09:05:09;21.52;;;13.02;;
54191;SDS011;40101;53.002;6.488;2024-02-21T09:07:35;28.08;;;12.43;;
54191;SDS011;40101;53.002;6.488;2024-02-21T09:10:01;32.10;;;14.25;;
54191;SDS011;40101;53.002;6.488;2024-02-21T09:12:27;25.25;;;13.70;;
54191;SDS011;40101;53.002;6.488;2024-02-21T09:14:54;24.80;;;14.00;;
54191;SDS011;40101;53.002;6.488;2024-02-21T09:17:20;21.45;;;12.68;;
54191;SDS011;40101;53.002;6.488;2024-02-21T09:19:46;32.17;;;13.45;;
54191;SDS011;40101;53.002;6.488;2024-02-21T09:22:15;23.10;;;13.18;;
54191;SDS011;40101;53.002;6.488;2024-02-21T09:24:41;29.73;;;15.30;;
54191;SDS011;40101;53.002;6.488;2024-02-21T09:27:06;28.88;;;14.48;;
54191;SDS011;40101;53.002;6.488;2024-02-21T09:29:32;31.15;;;14.77;;
54191;SDS011;40101;53.002;6.488;2024-02-21T09:31:58;26.27;;;14.00;;
54191;SDS011;40101;53.002;6.488;2024-02-21T09:34:24;34.65;;;14.98;;
54191;SDS011;40101;53.002;6.488;2024-02-21T09:36:50;24.25;;;14.52;;
54191;SDS011;40101;53.002;6.488;2024-02-21T09:39:15;25.05;;;14.38;;
54191;SDS011;40101;53.002;6.488;2024-02-21T09:41:45;32.13;;;17.05;;
54191;SDS011;40101;53.002;6.488;2024-02-21T09:44:15;27.80;;;15.05;;
54191;SDS011;40101;53.002;6.488;2024-02-21T09:51:56;28.92;;;16.27;;
54191;SDS011;40101;53.002;6.488;2024-02-21T09:54:24;25.20;;;16.20;;
54191;SDS011;40101;53.002;6.488;2024-02-21T09:56:50;30.92;;;16.15;;
54191;SDS011;40101;53.002;6.488;2024-02-21T09:59:16;32.10;;;17.83;;
54191;SDS011;40101;53.002;6.488;2024-02-21T10:01:42;28.27;;;17.33;;
54191;SDS011;40101;53.002;6.488;2024-02-21T10:04:12;30.30;;;17.30;;
54191;SDS011;40101;53.002;6.488;2024-02-21T10:06:38;30.40;;;16.92;;
54191;SDS011;40101;53.002;6.488;2024-02-21T10:09:05;32.70;;;17.80;;
54191;SDS011;40101;53.002;6.488;2024-02-21T10:11:32;25.85;;;16.75;;
54191;SDS011;40101;53.002;6.488;2024-02-21T10:14:04;31.83;;;18.05;;
54191;SDS011;40101;53.002;6.488;2024-02-21T10:16:31;25.55;;;17.15;;
54191;SDS011;40101;53.002;6.488;2024-02-21T10:18:57;30.90;;;16.77;;
54191;SDS011;40101;53.002;6.488;2024-02-21T10:21:23;42.80;;;20.02;;
54191;SDS011;40101;53.002;6.488;2024-02-21T10:23:50;31.45;;;16.67;;
54191;SDS011;40101;53.002;6.488;2024-02-21T10:26:16;35.10;;;18.35;;
54191;SDS011;40101;53.002;6.488;2024-02-21T10:28:43;35.65;;;17.98;;
54191;SDS011;40101;53.002;6.488;2024-02-21T10:31:20;33.00;;;17.35;;
54191;SDS011;40101;53.002;6.488;2024-02-21T10:33:56;27.67;;;17.70;;
54191;SDS011;40101;53.002;6.488;2024-02-21T10:36:28;27.08;;;16.45;;
54191;SDS011;40101;53.002;6.488;2024-02-21T10:38:55;32.92;;;15.02;;
54191;SDS011;40101;53.002;6.488;2024-02-21T10:41:24;32.78;;;16.20;;
54191;SDS011;40101;53.002;6.488;2024-02-21T10:43:52;28.10;;;15.77;;
54191;SDS011;40101;53.002;6.488;2024-02-21T10:46:20;24.77;;;16.63;;
54191;SDS011;40101;53.002;6.488;2024-02-21T10:48:47;28.77;;;15.90;;
54191;SDS011;40101;53.002;6.488;2024-02-21T10:51:24;25.15;;;15.23;;
54191;SDS011;40101;53.002;6.488;2024-02-21T10:56:50;26.23;;;14.60;;
54191;SDS011;40101;53.002;6.488;2024-02-21T10:59:19;26.25;;;14.25;;
54191;SDS011;40101;53.002;6.488;2024-02-21T11:01:46;23.40;;;14.38;;
54191;SDS011;40101;53.002;6.488;2024-02-21T11:04:12;24.45;;;12.40;;
54191;SDS011;40101;53.002;6.488;2024-02-21T11:06:40;19.98;;;12.02;;
54191;SDS011;40101;53.002;6.488;2024-02-21T11:09:14;23.90;;;10.95;;
54191;SDS011;40101;53.002;6.488;2024-02-21T11:11:40;25.98;;;11.68;;
54191;SDS011;40101;53.002;6.488;2024-02-21T11:14:17;22.48;;;12.93;;
54191;SDS011;40101;53.002;6.488;2024-02-21T11:16:44;20.52;;;10.95;;
54191;SDS011;40101;53.002;6.488;2024-02-21T11:19:22;24.27;;;10.57;;
54191;SDS011;40101;53.002;6.488;2024-02-21T11:21:56;23.02;;;10.75;;
54191;SDS011;40101;53.002;6.488;2024-02-21T11:29:54;22.33;;;11.55;;
54191;SDS011;40101;53.002;6.488;2024-02-21T11:34:59;14.65;;;8.65;;
54191;SDS011;40101;53.002;6.488;2024-02-21T11:37:33;16.15;;;8.90;;
54191;SDS011;40101;53.002;6.488;2024-02-21T11:40:04;18.00;;;9.48;;
54191;SDS011;40101;53.002;6.488;2024-02-21T11:42:34;17.95;;;8.68;;
54191;SDS011;40101;53.002;6.488;2024-02-21T11:45:04;18.95;;;11.27;;
54191;SDS011;40101;53.002;6.488;2024-02-21T11:47:34;15.50;;;8.48;;
54191;SDS011;40101;53.002;6.488;2024-02-21T11:50:18;17.17;;;9.45;;
54191;SDS011;40101;53.002;6.488;2024-02-21T11:52:48;21.67;;;10.20;;
54191;SDS011;40101;53.002;6.488;2024-02-21T11:55:16;15.00;;;9.20;;
54191;SDS011;40101;53.002;6.488;2024-02-21T11:57:41;18.63;;;10.32;;
54191;SDS011;40101;53.002;6.488;2024-02-21T12:00:18;16.83;;;8.52;;
54191;SDS011;40101;53.002;6.488;2024-02-21T12:02:47;15.52;;;8.88;;
54191;SDS011;40101;53.002;6.488;2024-02-21T12:05:13;17.10;;;8.52;;
54191;SDS011;40101;53.002;6.488;2024-02-21T12:07:39;16.98;;;9.00;;
54191;SDS011;40101;53.002;6.488;2024-02-21T12:10:09;18.83;;;8.93;;
54191;SDS011;40101;53.002;6.488;2024-02-21T12:12:36;19.17;;;9.85;;
54191;SDS011;40101;53.002;6.488;2024-02-21T12:15:03;13.55;;;8.07;;
54191;SDS011;40101;53.002;6.488;2024-02-21T12:17:30;17.10;;;7.97;;
54191;SDS011;40101;53.002;6.488;2024-02-21T12:19:58;11.23;;;7.70;;
54191;SDS011;40101;53.002;6.488;2024-02-21T12:22:25;12.02;;;7.13;;
54191;SDS011;40101;53.002;6.488;2024-02-21T12:24:50;14.52;;;7.15;;
54191;SDS011;40101;53.002;6.488;2024-02-21T12:27:16;16.60;;;8.23;;
54191;SDS011;40101;53.002;6.488;2024-02-21T12:29:42;10.07;;;7.38;;
54191;SDS011;40101;53.002;6.488;2024-02-21T12:32:08;15.85;;;6.63;;
54191;SDS011;40101;53.002;6.488;2024-02-21T12:34:33;15.20;;;6.85;;
54191;SDS011;40101;53.002;6.488;2024-02-21T12:37:01;13.43;;;7.25;;
54191;SDS011;40101;53.002;6.488;2024-02-21T12:39:28;13.40;;;7.65;;
54191;SDS011;40101;53.002;6.488;2024-02-21T12:41:54;14.05;;;7.28;;
54191;SDS011;40101;53.002;6.488;2024-02-21T12:44:21;10.00;;;6.45;;
54191;SDS011;40101;53.002;6.488;2024-02-21T12:46:47;15.57;;;6.85;;
54191;SDS011;40101;53.002;6.488;2024-02-21T12:49:17;13.13;;;6.50;;
54191;SDS011;40101;53.002;6.488;2024-02-21T12:51:43;16.02;;;9.35;;
54191;SDS011;40101;53.002;6.488;2024-02-21T12:54:11;11.38;;;7.15;;
54191;SDS011;40101;53.002;6.488;2024-02-21T12:56:37;9.23;;;6.95;;
54191;SDS011;40101;53.002;6.488;2024-02-21T12:59:04;14.75;;;7.10;;
54191;SDS011;40101;53.002;6.488;2024-02-21T13:01:33;9.68;;;7.20;;
54191;SDS011;40101;53.002;6.488;2024-02-21T13:04:00;13.52;;;6.13;;
54191;SDS011;40101;53.002;6.488;2024-02-21T13:06:26;10.63;;;6.10;;
54191;SDS011;40101;53.002;6.488;2024-02-21T13:08:51;10.95;;;6.80;;
54191;SDS011;40101;53.002;6.488;2024-02-21T13:11:17;10.23;;;6.05;;
54191;SDS011;40101;53.002;6.488;2024-02-21T13:13:43;19.90;;;12.85;;
54191;SDS011;40101;53.002;6.488;2024-02-21T13:16:11;24.13;;;8.98;;
54191;SDS011;40101;53.002;6.488;2024-02-21T13:18:37;8.75;;;5.50;;
54191;SDS011;40101;53.002;6.488;2024-02-21T13:21:04;9.55;;;6.82;;
54191;SDS011;40101;53.002;6.488;2024-02-21T13:23:31;12.38;;;6.07;;
54191;SDS011;40101;53.002;6.488;2024-02-21T13:26:00;8.93;;;5.78;;
54191;SDS011;40101;53.002;6.488;2024-02-21T13:28:28;6.65;;;5.35;;
54191;SDS011;40101;53.002;6.488;2024-02-21T13:30:54;7.28;;;4.95;;
54191;SDS011;40101;53.002;6.488;2024-02-21T13:33:19;16.95;;;7.93;;
54191;SDS011;40101;53.002;6.488;2024-02-21T13:35:48;11.27;;;4.60;;
54191;SDS011;40101;53.002;6.488;2024-02-21T13:38:14;9.25;;;4.70;;
54191;SDS011;40101;53.002;6.488;2024-02-21T13:40:40;8.10;;;3.83;;
54191;SDS011;40101;53.002;6.488;2024-02-21T13:43:07;8.52;;;5.20;;
54191;SDS011;40101;53.002;6.488;2024-02-21T13:45:36;8.60;;;5.25;;
54191;SDS011;40101;53.002;6.488;2024-02-21T13:48:02;11.20;;;5.72;;
54191;SDS011;40101;53.002;6.488;2024-02-21T13:50:31;6.75;;;5.05;;
54191;SDS011;40101;53.002;6.488;2024-02-21T13:52:57;8.23;;;5.28;;
54191;SDS011;40101;53.002;6.488;2024-02-21T13:55:23;10.98;;;7.78;;
54191;SDS011;40101;53.002;6.488;2024-02-21T13:57:51;9.25;;;5.30;;
54191;SDS011;40101;53.002;6.488;2024-02-21T14:00:17;8.70;;;6.35;;
54191;SDS011;40101;53.002;6.488;2024-02-21T14:02:46;6.95;;;4.80;;
54191;SDS011;40101;53.002;6.488;2024-02-21T14:05:12;7.05;;;5.50;;
54191;SDS011;40101;53.002;6.488;2024-02-21T14:07:42;13.93;;;5.78;;
54191;SDS011;40101;53.002;6.488;2024-02-21T14:10:08;8.77;;;7.07;;
54191;SDS011;40101;53.002;6.488;2024-02-21T14:12:34;12.13;;;5.50;;
54191;SDS011;40101;53.002;6.488;2024-02-21T14:15:00;10.50;;;4.82;;
54191;SDS011;40101;53.002;6.488;2024-02-21T14:17:26;21.35;;;10.05;;
54191;SDS011;40101;53.002;6.488;2024-02-21T14:19:51;8.57;;;5.28;;
54191;SDS011;40101;53.002;6.488;2024-02-21T14:22:17;10.50;;;5.03;;
54191;SDS011;40101;53.002;6.488;2024-02-21T14:24:43;7.57;;;4.93;;
54191;SDS011;40101;53.002;6.488;2024-02-21T14:27:10;10.70;;;4.75;;
54191;SDS011;40101;53.002;6.488;2024-02-21T14:29:35;21.67;;;7.35;;
54191;SDS011;40101;53.002;6.488;2024-02-21T14:32:02;8.65;;;5.07;;
54191;SDS011;40101;53.002;6.488;2024-02-21T14:34:28;8.32;;;4.85;;
54191;SDS011;40101;53.002;6.488;2024-02-21T14:36:54;9.15;;;5.13;;
54191;SDS011;40101;53.002;6.488;2024-02-21T14:39:23;8.73;;;5.32;;
54191;SDS011;40101;53.002;6.488;2024-02-21T14:41:51;18.83;;;10.52;;
54191;SDS011;40101;53.002;6.488;2024-02-21T14:44:17;12.05;;;7.03;;
54191;SDS011;40101;53.002;6.488;2024-02-21T14:46:42;6.65;;;5.05;;